Flight Track Log - Related Links

Times and Time Zones

All times are in EDT time to prevent confusion due to time zone crossing. See the SWA2130 flight status page for this flight to view local times or setup timezone preferences in your user account.

Time Position Orientation Groundspeed Altitude Reporting Facility
EDT Latitude Longitude Course Direction KTS MPH feet Rate Location/Type
Sun 11:22:32 PM 31.7961 -106.3244 98° East 180 207 5,700  Level Albuquerque Center
Sun 11:23:34 PM 31.7575 -106.2283 115° Southeast 301 346 7,600 2,780 Climbing Albuquerque Center
Sun 11:24:35 PM 31.6928 -106.1644 140° Southeast 306 352 11,400 3,738 Climbing Albuquerque Center
Sun 11:25:36 PM 31.6283 -106.0769 131° Southeast 353 406 15,200 3,738 Climbing Albuquerque Center
Sun 11:26:37 PM 31.5633 -105.9817 129° Southeast 373 429 19,000 3,366 Climbing Albuquerque Center
Sun 11:27:00 PM 31.5475 -105.9520 115° Southeast  Level FlightAware Approximate
Sun 11:27:39 PM 31.5025 -105.8758 124° Southeast 393 452 22,100  Level Albuquerque Center
Sun 11:28:40 PM 31.4600 -105.7508 112° Southeast 414 476 24,900 2,607 Climbing Albuquerque Center
Sun 11:29:41 PM 31.4342 -105.6106 102° East 439 505 27,400 2,244 Climbing Albuquerque Center
Sun 11:30:43 PM 31.4022 -105.4653 104° East 459 528 29,500 1,951 Climbing Albuquerque Center
Sun 11:31:44 PM 31.3703 -105.3119 104° East 481 554 31,400 1,869 Climbing Albuquerque Center
Sun 11:32:45 PM 31.3381 -105.1525 103° East 494 568 33,300 1,854 Climbing Albuquerque Center
Sun 11:33:47 PM 31.3028 -104.9914 104° East 504 580 35,200 1,756 Climbing Albuquerque Center
Sun 11:34:48 PM 31.2692 -104.8289 104° East 508 585 36,900 1,475 Climbing Albuquerque Center
Sun 11:35:49 PM 31.2272 -104.6317 104° East 516 594 38,200 1,377 Climbing Albuquerque Center
Sun 11:36:50 PM 31.1903 -104.4636 104° East 528 608 39,700 1,366 Climbing Albuquerque Center
Sun 11:37:52 PM 31.1539 -104.2981 104° East 527 606 41,000 634 Climbing Albuquerque Center
Sun 11:38:53 PM 31.1175 -104.1319 104° East 529 609 41,000  Level Albuquerque Center
Sun 11:39:54 PM 31.0794 -103.9656 105° East 530 610 41,000  Level Albuquerque Center
Sun 11:40:55 PM 31.0422 -103.8011 105° East 527 606 41,000  Level Albuquerque Center
Sun 11:41:57 PM 31.0014 -103.6261 105° East 525 604 41,000  Level Albuquerque Center
Sun 11:42:58 PM 30.9658 -103.4636 104° East 522 601 41,000  Level Albuquerque Center
Sun 11:43:59 PM 30.9264 -103.3017 106° East 523 602 41,000  Level Albuquerque Center
Sun 11:45:00 PM 30.8922 -103.1400 104° East 519 597 41,000  Level Albuquerque Center
Sun 11:46:02 PM 30.8550 -102.9797 105° East 516 594 41,000  Level Albuquerque Center
Sun 11:47:03 PM 30.8175 -102.8175 105° East 519 597 41,000  Level Albuquerque Center
Sun 11:48:04 PM 30.7711 -102.6228 105° East 525 604 41,000  Level Albuquerque Center
Sun 11:49:05 PM 30.7339 -102.4608 105° East 524 603 41,000  Level Albuquerque Center
Sun 11:50:06 PM 30.6958 -102.2997 105° East 523 602 41,000  Level Albuquerque Center
Sun 11:51:07 PM 30.6575 -102.1378 105° East 524 603 41,000  Level Albuquerque Center
Sun 11:52:09 PM 30.6183 -101.9753 106° East 525 604 41,000  Level Albuquerque Center
Sun 11:53:10 PM 30.5783 -101.8142 106° East 526 605 41,000  Level Albuquerque Center
Sun 11:53:41 PM 30.5556 -101.7131 105° East 527 606 41,000  Level Houston Center
Sun 11:54:42 PM 30.5147 -101.5453 106° East 525 604 41,000  Level Houston Center
Sun 11:55:42 PM 30.4744 -101.3811 106° East 529 609 41,000  Level Houston Center
Sun 11:56:43 PM 30.4344 -101.2164 106° East 531 611 41,000  Level Houston Center
Sun 11:57:44 PM 30.3933 -101.0533 106° East 529 609 41,000 -298 Level Houston Center
Sun 11:58:44 PM 30.3522 -100.8892 106° East 530 610 40,400 -1,537 Descending Houston Center
Sun 11:59:45 PM 30.3119 -100.7278 106° East 523 602 37,900 -2,628 Descending Houston Center
Mon 12:00:45 AM 30.2714 -100.5650 106° East 524 603 35,100 -2,777 Descending Houston Center
Mon 12:01:46 AM 30.2308 -100.4028 106° East 522 601 32,300 -2,557 Descending Houston Center
Mon 12:02:47 AM 30.1908 -100.2439 106° East 508 585 29,900 -2,380 Descending Houston Center
Mon 12:03:47 AM 30.1511 -100.0917 107° East 483 556 27,500 -2,331 Descending Houston Center
Mon 12:04:48 AM 30.1136 -99.9450 106° East 474 545 25,200 -2,182 Descending Houston Center
Mon 12:05:48 AM 30.0781 -99.8078 107° East 450 518 23,100 -2,083 Descending Houston Center
Mon 12:06:49 AM 30.0439 -99.6764 107° East 431 496 21,000 -1,967 Descending Houston Center
Mon 12:07:50 AM 30.0106 -99.5503 107° East 414 476 19,100 -1,835 Descending Houston Center
Mon 12:08:50 AM 29.9789 -99.4303 107° East 395 455 17,300 -1,835 Descending Houston Center
Mon 12:09:51 AM 29.9469 -99.3147 108° East 382 440 15,400 -1,769 Descending Houston Center
Mon 12:10:08 AM 29.9328 -99.2772 114° Southeast 374 430 15,000 -1,700 Descending Houston Center
Mon 12:10:51 AM 29.9044 -99.2103 116° Southeast 362 417 13,700 -2,000 Descending Houston Center
Mon 12:11:08 AM 29.8906 -99.1761 115° Southeast 350 403 13,000 -1,869 Descending Houston Center
Mon 12:11:52 AM 29.8617 -99.1086 116° Southeast 352 405 11,800 -1,770 Descending Houston Center
Mon 12:12:09 AM 29.8483 -99.0750 115° Southeast 349 402 11,200 -1,400 Descending Houston Center
Mon 12:12:52 AM 29.8178 -98.9989 115° Southeast 333 383 10,400 -1,327 Descending Houston Center
Mon 12:13:53 AM 29.7803 -98.9100 116° Southeast 309 356 8,900 -1,615 Descending Houston Center
Mon 12:14:10 AM 29.7706 -98.8842 113° Southeast 299 344 8,300 -1,770 Descending Houston Center
Mon 12:14:54 AM 29.7444 -98.8228 116° Southeast 301 346 7,100 -1,672 Descending Houston Center
Mon 12:15:11 AM 29.7333 -98.7969 116° Southeast 301 346 6,600 -1,500 Descending Houston Center
Mon 12:15:54 AM 29.7097 -98.7378 115° Southeast 293 337 5,600 -1,400 Descending Houston Center
Mon 12:16:11 AM 29.6989 -98.7144 118° Southeast 283 326 5,200 -1,180 Descending Houston Center
Mon 12:16:55 AM 29.6778 -98.6622 115° Southeast 267 307 4,400 -984 Descending Houston Center
Mon 12:17:12 AM 29.6653 -98.6464 132° Southeast 241 277 4,200 -700 Descending Houston Center
Mon 12:17:55 AM 29.6386 -98.6086 129° Southeast 220 253 3,700 -787 Descending Houston Center
Mon 12:18:13 AM 29.6294 -98.5978 134° Southeast 184 212 3,400 -984 Descending Houston Center
Mon 12:18:56 AM 29.6069 -98.5675 131° Southeast 183 211 2,700 -900 Descending Houston Center
Mon 12:19:13 AM 29.5986 -98.5581 135° Southeast 153 176 2,500 -700 Descending Houston Center
Mon 12:19:56 AM 29.5803 -98.5333 130° Southeast 139 160 2,000 -689 Descending Houston Center
Mon 12:20:14 AM 29.5747 -98.5272 136° Southeast 122 140 1,800 -689 Descending Houston Center
Mon 12:20:57 AM 29.5581 -98.5039 129° Southeast 125 144 1,300 -700 Descending Houston Center
Mon 12:21:14 AM 29.5508 -98.4967 139° Southeast 116 133 1,100 -500 Descending Houston Center
Mon 12:21:57 AM 29.5406 -98.4811 127° Southeast 117 135 800 -419 Descending Houston Center
Mon 12:23:00 AM 29.5333 -98.4667 120° Southeast  Level FlightAware Approximate
Mon 12:30:00 AM 29.5340 -98.4691 120° Southeast  Level Estimated
Mon 12:31:00 AM 29.5333 -98.4667 120° Southeast  Level FlightAware Approximate

Login

Don't have an account? Register now (free) for customized features, flight alerts, and more!